Time,TemperatureF,DewpointF,PressureIn,WindDirection,WindDirectionDegrees,WindSpeedMPH,WindSpeedGustMPH,Humidity,HourlyPrecipIn,Conditions,Clouds,dailyrainin,SoftwareType,DateUTC
2013-04-08 00:04:00,28.1,26.1,29.79,SSE,153,0.0,4.0,92,0.03,,---,0.00,VWS V14.01,2013-04-08 05:04:00,
2013-04-08 00:10:00,28.1,26.1,29.79,SSE,155,4.0,5.0,92,0.03,,---,0.00,VWS V14.01,2013-04-08 05:10:00,
2013-04-08 00:15:00,28.0,26.0,29.79,SE,132,6.0,6.0,92,0.03,,---,0.00,VWS V14.01,2013-04-08 05:15:00,
2013-04-08 00:20:00,27.9,25.9,29.79,SE,146,2.0,6.0,92,0.04,,---,0.01,VWS V14.01,2013-04-08 05:20:00,
2013-04-08 00:25:00,27.9,25.9,29.79,SSE,156,0.0,6.0,92,0.04,,---,0.01,VWS V14.01,2013-04-08 05:25:00,
2013-04-08 00:30:00,27.8,26.0,29.78,ESE,113,0.0,6.0,93,0.04,,---,0.01,VWS V14.01,2013-04-08 05:30:00,
2013-04-08 00:35:00,27.8,26.0,29.78,ESE,106,0.0,4.0,93,0.03,,---,0.01,VWS V14.01,2013-04-08 05:35:00,
2013-04-08 00:40:00,27.8,26.0,29.78,ESE,121,0.0,4.0,93,0.03,,---,0.01,VWS V14.01,2013-04-08 05:40:00,
2013-04-08 00:45:00,27.8,26.0,29.78,SE,136,1.0,4.0,93,0.03,,---,0.01,VWS V14.01,2013-04-08 05:45:00,
2013-04-08 00:50:00,27.8,26.0,29.78,SE,136,0.0,4.0,93,0.03,,---,0.01,VWS V14.01,2013-04-08 05:50:00,
2013-04-08 00:56:00,27.8,26.0,29.78,SE,137,0.0,4.0,93,0.03,,---,0.01,VWS V14.01,2013-04-08 05:56:00,
2013-04-08 01:01:00,27.8,26.0,29.78,SE,137,1.0,2.0,93,0.01,,---,0.01,VWS V14.01,2013-04-08 06:01:00,
2013-04-08 01:06:00,27.8,26.0,29.78,SE,137,0.0,3.0,93,0.02,,---,0.02,VWS V14.01,2013-04-08 06:06:00,
2013-04-08 01:12:00,28.0,26.2,29.78,SE,138,1.0,5.0,93,0.02,,---,0.02,VWS V14.01,2013-04-08 06:12:00,
2013-04-08 01:17:00,28.0,26.2,29.77,SE,134,1.0,5.0,93,0.02,,---,0.02,VWS V14.01,2013-04-08 06:17:00,
2013-04-08 01:22:00,28.0,26.2,29.77,SE,126,0.0,5.0,93,0.02,,---,0.02,VWS V14.01,2013-04-08 06:22:00,
2013-04-08 01:27:00,27.9,26.1,29.77,SE,130,4.0,5.0,93,0.02,,---,0.02,VWS V14.01,2013-04-08 06:27:00,
2013-04-08 01:32:00,27.8,26.0,29.77,East,91,1.0,5.0,93,0.01,,---,0.02,VWS V14.01,2013-04-08 06:32:00,
2013-04-08 01:37:00,27.8,26.0,29.77,SSE,151,2.0,7.0,93,0.01,,---,0.02,VWS V14.01,2013-04-08 06:37:00,
2013-04-08 01:42:00,27.8,26.0,29.77,SE,145,2.0,7.0,93,0.01,,---,0.02,VWS V14.01,2013-04-08 06:42:00,
2013-04-08 01:48:00,27.8,26.0,29.77,SE,139,4.0,7.0,93,0.01,,---,0.02,VWS V14.01,2013-04-08 06:48:00,
2013-04-08 01:53:00,27.7,25.9,29.77,SE,126,0.0,7.0,93,0.01,,---,0.02,VWS V14.01,2013-04-08 06:53:00,
2013-04-08 01:58:00,27.7,25.9,29.77,SE,137,0.0,7.0,93,0.01,,---,0.02,VWS V14.01,2013-04-08 06:58:00,
2013-04-08 02:03:00,27.8,26.0,29.77,SE,143,2.0,5.0,93,0.01,,---,0.02,VWS V14.01,2013-04-08 07:03:00,
2013-04-08 02:09:00,27.8,26.0,29.77,SSE,147,1.0,5.0,93,0.01,,---,0.02,VWS V14.01,2013-04-08 07:09:00,
2013-04-08 02:14:00,27.8,26.0,29.77,ESE,123,2.0,5.0,93,0.01,,---,0.02,VWS V14.01,2013-04-08 07:14:00,
2013-04-08 02:20:00,27.8,26.0,29.77,SE,124,1.0,5.0,93,0.01,,---,0.02,VWS V14.01,2013-04-08 07:20:00,
2013-04-08 02:25:00,27.7,25.9,29.77,SE,143,1.0,5.0,93,0.02,,---,0.03,VWS V14.01,2013-04-08 07:25:00,
2013-04-08 02:30:00,27.7,25.9,29.77,SE,138,1.0,5.0,93,0.02,,---,0.03,VWS V14.01,2013-04-08 07:30:00,
2013-04-08 02:35:00,27.8,26.0,29.77,SE,139,0.0,2.0,93,0.01,,---,0.03,VWS V14.01,2013-04-08 07:35:00,
2013-04-08 02:41:00,27.8,26.0,29.77,SE,137,0.0,3.0,93,0.01,,---,0.03,VWS V14.01,2013-04-08 07:41:00,
2013-04-08 02:46:00,27.8,26.0,29.77,SE,137,0.0,4.0,93,0.01,,---,0.03,VWS V14.01,2013-04-08 07:46:00,
2013-04-08 02:51:00,27.8,26.0,29.77,SE,138,0.0,4.0,93,0.01,,---,0.03,VWS V14.01,2013-04-08 07:51:00,
2013-04-08 02:57:00,27.8,26.0,29.77,SE,140,0.0,4.0,93,0.01,,---,0.03,VWS V14.01,2013-04-08 07:57:00,
2013-04-08 03:02:00,27.8,26.0,29.77,SE,140,0.0,1.0,93,0.01,,---,0.03,VWS V14.01,2013-04-08 08:02:00,
2013-04-08 03:07:00,27.8,26.0,29.77,SE,144,0.0,3.0,93,0.01,,---,0.03,VWS V14.01,2013-04-08 08:07:00,
2013-04-08 03:12:00,27.9,26.1,29.77,SE,136,0.0,3.0,93,0.01,,---,0.03,VWS V14.01,2013-04-08 08:12:00,
2013-04-08 03:17:00,27.9,26.1,29.76,SE,136,1.0,3.0,93,0.01,,---,0.03,VWS V14.01,2013-04-08 08:17:00,
2013-04-08 03:22:00,27.9,26.1,29.76,ESE,105,0.0,4.0,93,0.01,,---,0.03,VWS V14.01,2013-04-08 08:22:00,
2013-04-08 03:27:00,27.9,26.1,29.76,ESE,105,0.0,4.0,93,0.01,,---,0.03,VWS V14.01,2013-04-08 08:27:00,
2013-04-08 03:33:00,28.0,26.2,29.75,East,101,0.0,3.0,93,0.00,,---,0.03,VWS V14.01,2013-04-08 08:33:00,
2013-04-08 03:38:00,28.0,26.2,29.75,East,101,0.0,3.0,93,0.01,,---,0.04,VWS V14.01,2013-04-08 08:38:00,
2013-04-08 03:43:00,28.1,26.3,29.75,East,100,1.0,3.0,93,0.01,,---,0.04,VWS V14.01,2013-04-08 08:43:00,
2013-04-08 03:48:00,28.1,26.3,29.75,East,101,1.0,3.0,93,0.01,,---,0.04,VWS V14.01,2013-04-08 08:48:00,
2013-04-08 03:53:00,28.1,26.3,29.75,East,101,0.0,3.0,93,0.01,,---,0.04,VWS V14.01,2013-04-08 08:53:00,
2013-04-08 03:59:00,28.1,26.3,29.75,East,101,0.0,3.0,93,0.01,,---,0.04,VWS V14.01,2013-04-08 08:59:00,
2013-04-08 04:04:00,28.1,26.3,29.75,East,101,0.0,1.0,93,0.01,,---,0.04,VWS V14.01,2013-04-08 09:04:00,
2013-04-08 04:09:00,28.1,26.3,29.75,East,101,0.0,1.0,93,0.01,,---,0.04,VWS V14.01,2013-04-08 09:09:00,
2013-04-08 04:15:00,28.2,26.4,29.75,East,101,0.0,1.0,93,0.01,,---,0.04,VWS V14.01,2013-04-08 09:15:00,
2013-04-08 04:20:00,28.2,26.4,29.75,East,101,0.0,1.0,93,0.01,,---,0.04,VWS V14.01,2013-04-08 09:20:00,
2013-04-08 04:25:00,28.3,26.5,29.75,East,101,1.0,1.0,93,0.01,,---,0.04,VWS V14.01,2013-04-08 09:25:00,
2013-04-08 04:30:00,28.3,26.5,29.75,East,101,0.0,1.0,93,0.01,,---,0.04,VWS V14.01,2013-04-08 09:30:00,
2013-04-08 04:35:00,28.3,26.5,29.75,East,101,0.0,1.0,93,0.01,,---,0.04,VWS V14.01,2013-04-08 09:35:00,
2013-04-08 04:41:00,28.3,26.5,29.75,East,101,0.0,2.0,93,0.02,,---,0.05,VWS V14.01,2013-04-08 09:41:00,
2013-04-08 04:46:00,28.2,26.4,29.75,East,101,0.0,2.0,93,0.02,,---,0.05,VWS V14.01,2013-04-08 09:46:00,
2013-04-08 04:51:00,28.2,26.4,29.75,East,101,0.0,2.0,93,0.02,,---,0.05,VWS V14.01,2013-04-08 09:51:00,
2013-04-08 04:56:00,28.2,26.7,29.75,ESE,102,0.0,3.0,94,0.02,,---,0.05,VWS V14.01,2013-04-08 09:56:00,
2013-04-08 05:01:00,28.2,26.7,29.75,ESE,102,1.0,2.0,94,0.02,,---,0.06,VWS V14.01,2013-04-08 10:01:00,
2013-04-08 05:06:00,28.1,26.6,29.75,ESE,102,0.0,2.0,94,0.02,,---,0.06,VWS V14.01,2013-04-08 10:06:00,
2013-04-08 05:12:00,28.1,26.6,29.75,ESE,102,0.0,2.0,94,0.02,,---,0.06,VWS V14.01,2013-04-08 10:12:00,
2013-04-08 05:17:00,28.2,26.7,29.75,ESE,102,0.0,2.0,94,0.02,,---,0.06,VWS V14.01,2013-04-08 10:17:00,
2013-04-08 05:22:00,28.2,26.7,29.75,ESE,102,0.0,2.0,94,0.02,,---,0.06,VWS V14.01,2013-04-08 10:22:00,
2013-04-08 05:28:00,28.2,26.7,29.75,ESE,102,0.0,2.0,94,0.02,,---,0.06,VWS V14.01,2013-04-08 10:28:00,
2013-04-08 05:33:00,28.3,26.8,29.75,ESE,102,0.0,0.0,94,0.02,,---,0.06,VWS V14.01,2013-04-08 10:33:00,
2013-04-08 05:38:00,28.3,26.8,29.75,ESE,102,0.0,0.0,94,0.03,,---,0.07,VWS V14.01,2013-04-08 10:38:00,
2013-04-08 05:43:00,28.3,26.8,29.75,ESE,102,0.0,1.0,94,0.03,,---,0.07,VWS V14.01,2013-04-08 10:43:00,
2013-04-08 05:48:00,28.4,26.9,29.75,ESE,102,0.0,1.0,94,0.03,,---,0.07,VWS V14.01,2013-04-08 10:48:00,
2013-04-08 05:53:00,28.4,26.9,29.75,ESE,102,0.0,2.0,94,0.03,,---,0.07,VWS V14.01,2013-04-08 10:53:00,
2013-04-08 05:59:00,28.4,26.9,29.75,ESE,102,0.0,2.0,94,0.03,,---,0.07,VWS V14.01,2013-04-08 10:59:00,
2013-04-08 06:05:00,28.5,27.0,29.75,ESE,102,0.0,0.0,94,0.02,,---,0.07,VWS V14.01,2013-04-08 11:05:00,
2013-04-08 06:10:00,28.5,27.0,29.75,ESE,102,0.0,0.0,94,0.02,,---,0.07,VWS V14.01,2013-04-08 11:10:00,
2013-04-08 06:15:00,28.4,26.9,29.75,ESE,102,0.0,0.0,94,0.02,,---,0.07,VWS V14.01,2013-04-08 11:15:00,
2013-04-08 06:20:00,28.4,26.9,29.75,ESE,102,0.0,0.0,94,0.02,,---,0.07,VWS V14.01,2013-04-08 11:20:00,
2013-04-08 06:25:00,28.4,26.9,29.75,ESE,102,0.0,0.0,94,0.02,,---,0.07,VWS V14.01,2013-04-08 11:25:00,
2013-04-08 06:31:00,28.4,26.9,29.75,ESE,102,0.0,0.0,94,0.02,,---,0.07,VWS V14.01,2013-04-08 11:31:00,
2013-04-08 06:36:00,28.5,27.0,29.75,ESE,102,0.0,0.0,94,0.01,,---,0.07,VWS V14.01,2013-04-08 11:36:00,
2013-04-08 06:41:00,28.5,27.0,29.75,ESE,102,0.0,0.0,94,0.01,,---,0.07,VWS V14.01,2013-04-08 11:41:00,
2013-04-08 06:47:00,28.5,27.0,29.75,ESE,102,0.0,1.0,94,0.01,,---,0.07,VWS V14.01,2013-04-08 11:47:00,
2013-04-08 06:52:00,28.5,27.0,29.75,ESE,102,0.0,2.0,94,0.01,,---,0.07,VWS V14.01,2013-04-08 11:52:00,
2013-04-08 06:58:00,28.5,27.0,29.75,ESE,102,0.0,2.0,94,0.01,,---,0.07,VWS V14.01,2013-04-08 11:58:00,
2013-04-08 07:03:00,28.5,27.0,29.75,ESE,102,0.0,2.0,94,0.00,,---,0.07,VWS V14.01,2013-04-08 12:03:00,
2013-04-08 07:09:00,28.5,27.0,29.75,ESE,102,0.0,2.0,94,0.00,,---,0.07,VWS V14.01,2013-04-08 12:09:00,
2013-04-08 07:14:00,28.5,27.0,29.75,ESE,102,0.0,2.0,94,0.00,,---,0.07,VWS V14.01,2013-04-08 12:14:00,
2013-04-08 07:19:00,28.6,27.1,29.75,ESE,102,0.0,2.0,94,0.00,,---,0.07,VWS V14.01,2013-04-08 12:19:00,
2013-04-08 07:25:00,28.7,27.2,29.75,East,101,1.0,2.0,94,0.00,,---,0.07,VWS V14.01,2013-04-08 12:25:00,
2013-04-08 07:30:00,28.7,27.2,29.75,East,101,1.0,2.0,94,0.00,,---,0.07,VWS V14.01,2013-04-08 12:30:00,
2013-04-08 07:35:00,28.7,27.2,29.76,East,101,0.0,2.0,94,0.00,,---,0.07,VWS V14.01,2013-04-08 12:35:00,
2013-04-08 07:40:00,28.7,27.2,29.76,East,101,1.0,2.0,94,0.00,,---,0.07,VWS V14.01,2013-04-08 12:40:00,
2013-04-08 07:45:00,28.7,27.2,29.76,East,101,0.0,2.0,94,0.00,,---,0.07,VWS V14.01,2013-04-08 12:45:00,
2013-04-08 07:50:00,28.8,27.3,29.76,East,101,0.0,2.0,94,0.00,,---,0.07,VWS V14.01,2013-04-08 12:50:00,
2013-04-08 07:55:00,28.8,27.3,29.76,East,101,0.0,2.0,94,0.00,,---,0.07,VWS V14.01,2013-04-08 12:55:00,
2013-04-08 08:00:00,28.9,27.4,29.77,East,101,0.0,2.0,94,0.00,,---,0.07,VWS V14.01,2013-04-08 13:00:00,
2013-04-08 08:05:00,29.0,27.5,29.77,East,101,1.0,2.0,94,0.00,,---,0.07,VWS V14.01,2013-04-08 13:05:00,
2013-04-08 08:11:00,29.0,27.5,29.77,East,101,1.0,2.0,94,0.00,,---,0.07,VWS V14.01,2013-04-08 13:11:00,
2013-04-08 08:16:00,29.2,27.7,29.77,East,98,2.0,2.0,94,0.00,,---,0.07,VWS V14.01,2013-04-08 13:16:00,
2013-04-08 08:21:00,29.1,27.6,29.77,East,84,0.0,4.0,94,0.00,,---,0.07,VWS V14.01,2013-04-08 13:21:00,
2013-04-08 08:26:00,29.2,27.7,29.77,ESE,121,1.0,4.0,94,0.00,,---,0.07,VWS V14.01,2013-04-08 13:26:00,
2013-04-08 08:31:00,29.2,27.7,29.76,ESE,119,2.0,3.0,94,0.00,,---,0.07,VWS V14.01,2013-04-08 13:31:00,
2013-04-08 08:37:00,29.3,27.5,29.76,ENE,73,3.0,5.0,93,0.00,,---,0.07,VWS V14.01,2013-04-08 13:37:00,
2013-04-08 08:42:00,29.5,28.0,29.76,East,84,1.0,5.0,94,0.00,,---,0.07,VWS V14.01,2013-04-08 13:42:00,
2013-04-08 08:47:00,29.6,28.1,29.75,ESE,104,1.0,5.0,94,0.00,,---,0.07,VWS V14.01,2013-04-08 13:47:00,
2013-04-08 08:52:00,29.9,28.1,29.75,ESE,103,1.0,5.0,93,0.00,,---,0.07,VWS V14.01,2013-04-08 13:52:00,
2013-04-08 08:57:00,30.0,28.2,29.75,East,82,0.0,5.0,93,0.00,,---,0.07,VWS V14.01,2013-04-08 13:57:00,
2013-04-08 09:02:00,30.0,28.2,29.76,East,93,3.0,3.0,93,0.00,,---,0.07,VWS V14.01,2013-04-08 14:02:00,
2013-04-08 09:07:00,30.0,28.2,29.76,NE,55,1.0,5.0,93,0.00,,---,0.07,VWS V14.01,2013-04-08 14:07:00,
2013-04-08 09:13:00,30.1,28.3,29.76,ENE,63,4.0,5.0,93,0.00,,---,0.07,VWS V14.01,2013-04-08 14:13:00,
2013-04-08 09:18:00,30.2,28.4,29.75,East,79,1.0,6.0,93,0.00,,---,0.07,VWS V14.01,2013-04-08 14:18:00,
2013-04-08 09:23:00,30.6,28.8,29.75,East,85,2.0,6.0,93,0.00,,---,0.07,VWS V14.01,2013-04-08 14:23:00,
2013-04-08 09:28:00,30.7,28.9,29.75,NE,46,2.0,6.0,93,0.00,,---,0.07,VWS V14.01,2013-04-08 14:28:00,
2013-04-08 09:33:00,30.7,28.7,29.75,NE,55,4.0,5.0,92,0.00,,---,0.07,VWS V14.01,2013-04-08 14:33:00,
2013-04-08 09:39:00,30.8,28.8,29.75,ENE,63,1.0,5.0,92,0.00,,---,0.07,VWS V14.01,2013-04-08 14:39:00,
2013-04-08 09:44:00,31.0,29.0,29.75,East,88,0.0,5.0,92,0.00,,---,0.07,VWS V14.01,2013-04-08 14:44:00,
2013-04-08 09:49:00,31.5,29.5,29.75,East,88,0.0,5.0,92,0.00,,---,0.07,VWS V14.01,2013-04-08 14:49:00,
2013-04-08 09:55:00,31.7,29.6,29.75,East,81,1.0,5.0,92,0.00,,---,0.07,VWS V14.01,2013-04-08 14:55:00,
2013-04-08 10:00:00,31.9,29.6,29.75,ENE,78,2.0,5.0,91,0.00,,---,0.07,VWS V14.01,2013-04-08 15:00:00,
2013-04-08 10:05:00,31.9,29.6,29.75,NE,46,1.0,4.0,91,0.00,,---,0.07,VWS V14.01,2013-04-08 15:05:00,
2013-04-08 10:10:00,32.2,29.9,29.75,NE,40,0.0,4.0,91,0.00,,---,0.07,VWS V14.01,2013-04-08 15:10:00,
2013-04-08 10:15:00,32.4,29.8,29.75,ENE,61,3.0,4.0,90,0.00,,---,0.07,VWS V14.01,2013-04-08 15:15:00,
2013-04-08 10:21:00,32.1,29.5,29.75,East,79,3.0,4.0,90,0.00,,---,0.07,VWS V14.01,2013-04-08 15:21:00,
2013-04-08 10:26:00,32.1,29.5,29.75,East,101,0.0,4.0,90,0.00,,---,0.07,VWS V14.01,2013-04-08 15:26:00,
2013-04-08 10:32:00,32.4,30.1,29.76,East,93,3.0,3.0,91,0.00,,---,0.07,VWS V14.01,2013-04-08 15:32:00,
2013-04-08 10:37:00,32.4,29.8,29.76,East,94,0.0,4.0,90,0.00,,---,0.07,VWS V14.01,2013-04-08 15:37:00,
2013-04-08 10:42:00,32.6,30.0,29.76,ENE,63,1.0,5.0,90,0.00,,---,0.07,VWS V14.01,2013-04-08 15:42:00,
2013-04-08 10:47:00,32.5,29.9,29.75,NNE,17,2.0,5.0,90,0.00,,---,0.07,VWS V14.01,2013-04-08 15:47:00,
2013-04-08 10:52:00,32.6,30.0,29.75,NE,55,2.0,5.0,90,0.00,,---,0.07,VWS V14.01,2013-04-08 15:52:00,
2013-04-08 10:57:00,32.9,30.3,29.75,NNE,26,2.0,6.0,90,0.00,,---,0.07,VWS V14.01,2013-04-08 15:57:00,
2013-04-08 11:03:00,33.1,30.5,29.76,NNE,32,3.0,3.0,90,0.00,,---,0.07,VWS V14.01,2013-04-08 16:03:00,
2013-04-08 11:08:00,32.9,30.0,29.76,NE,44,2.0,6.0,89,0.00,,---,0.07,VWS V14.01,2013-04-08 16:08:00,
2013-04-08 11:13:00,32.9,30.3,29.76,NE,51,3.0,6.0,90,0.00,,---,0.07,VWS V14.01,2013-04-08 16:13:00,
2013-04-08 11:19:00,33.0,30.1,29.77,NNE,20,1.0,6.0,89,0.00,,---,0.07,VWS V14.01,2013-04-08 16:19:00,
2013-04-08 11:24:00,33.2,30.3,29.77,NE,42,2.0,6.0,89,0.00,,---,0.07,VWS V14.01,2013-04-08 16:24:00,
2013-04-08 11:29:00,33.3,30.4,29.77,NNE,21,5.0,6.0,89,0.00,,---,0.07,VWS V14.01,2013-04-08 16:29:00,
2013-04-08 11:34:00,33.2,30.3,29.77,North,5,4.0,5.0,89,0.00,,---,0.07,VWS V14.01,2013-04-08 16:34:00,
2013-04-08 11:40:00,33.2,30.3,29.77,NNE,13,4.0,8.0,89,0.00,,---,0.07,VWS V14.01,2013-04-08 16:40:00,
2013-04-08 11:46:00,33.3,30.4,29.77,North,5,3.0,8.0,89,0.00,,---,0.07,VWS V14.01,2013-04-08 16:46:00,
2013-04-08 11:52:00,33.8,30.9,29.77,NNE,13,2.0,8.0,89,0.00,,---,0.07,VWS V14.01,2013-04-08 16:52:00,
2013-04-08 11:57:00,34.1,30.9,29.77,NNE,14,5.0,8.0,88,0.00,,---,0.07,VWS V14.01,2013-04-08 16:57:00,
2013-04-08 12:02:00,34.2,31.0,29.77,NNE,16,4.0,5.0,88,0.00,,---,0.07,VWS V14.01,2013-04-08 17:02:00,
2013-04-08 12:07:00,34.0,30.8,29.77,NE,54,4.0,6.0,88,0.00,,---,0.07,VWS V14.01,2013-04-08 17:07:00,
2013-04-08 12:12:00,33.9,30.7,29.77,NNE,25,4.0,6.0,88,0.00,,---,0.07,VWS V14.01,2013-04-08 17:12:00,
2013-04-08 12:17:00,34.0,30.8,29.77,NNE,13,5.0,6.0,88,0.00,,---,0.07,VWS V14.01,2013-04-08 17:17:00,
2013-04-08 12:22:00,34.1,30.9,29.77,East,88,3.0,6.0,88,0.00,,---,0.07,VWS V14.01,2013-04-08 17:22:00,
2013-04-08 12:27:00,34.1,30.9,29.77,NNE,13,2.0,6.0,88,0.00,,---,0.07,VWS V14.01,2013-04-08 17:27:00,
2013-04-08 12:33:00,34.4,31.5,29.77,NE,40,3.0,3.0,89,0.00,,---,0.07,VWS V14.01,2013-04-08 17:33:00,
2013-04-08 12:38:00,34.4,31.5,29.77,East,84,0.0,6.0,89,0.00,,---,0.07,VWS V14.01,2013-04-08 17:38:00,
2013-04-08 12:44:00,34.8,31.6,29.77,NNE,27,3.0,6.0,88,0.00,,---,0.07,VWS V14.01,2013-04-08 17:44:00,
2013-04-08 12:49:00,34.7,31.5,29.77,NNE,29,4.0,6.0,88,0.00,,---,0.07,VWS V14.01,2013-04-08 17:49:00,
2013-04-08 12:55:00,34.8,31.6,29.77,NE,56,3.0,6.0,88,0.00,,---,0.07,VWS V14.01,2013-04-08 17:55:00,
2013-04-08 13:00:00,34.7,31.5,29.76,NNE,15,1.0,6.0,88,0.00,,---,0.07,VWS V14.01,2013-04-08 18:00:00,
2013-04-08 13:05:00,35.2,32.0,29.76,NNE,30,0.0,7.0,88,0.00,,---,0.07,VWS V14.01,2013-04-08 18:05:00,
2013-04-08 13:10:00,35.7,32.5,29.76,NE,34,2.0,7.0,88,0.00,,---,0.07,VWS V14.01,2013-04-08 18:10:00,
2013-04-08 13:16:00,35.7,32.2,29.76,NE,44,2.0,7.0,87,0.00,,---,0.07,VWS V14.01,2013-04-08 18:16:00,
2013-04-08 13:21:00,35.8,32.3,29.76,ENE,61,3.0,7.0,87,0.00,,---,0.07,VWS V14.01,2013-04-08 18:21:00,
2013-04-08 13:27:00,35.9,32.1,29.76,NE,41,1.0,7.0,86,0.00,,---,0.07,VWS V14.01,2013-04-08 18:27:00,
2013-04-08 13:32:00,35.8,32.0,29.76,NNE,19,3.0,5.0,86,0.00,,---,0.07,VWS V14.01,2013-04-08 18:32:00,
2013-04-08 13:37:00,35.7,32.2,29.76,NE,45,2.0,5.0,87,0.00,,---,0.07,VWS V14.01,2013-04-08 18:37:00,
2013-04-08 13:42:00,35.9,32.1,29.76,NNE,26,0.0,5.0,86,0.00,,---,0.07,VWS V14.01,2013-04-08 18:42:00,
2013-04-08 13:47:00,36.0,32.5,29.77,NNE,31,4.0,5.0,87,0.00,,---,0.07,VWS V14.01,2013-04-08 18:47:00,
2013-04-08 13:52:00,35.9,32.1,29.77,NNE,19,2.0,5.0,86,0.00,,---,0.07,VWS V14.01,2013-04-08 18:52:00,
2013-04-08 13:57:00,35.7,31.6,29.77,NNE,19,4.0,5.0,85,0.00,,---,0.07,VWS V14.01,2013-04-08 18:57:00,
2013-04-08 14:02:00,35.6,31.8,29.77,NNE,24,2.0,2.0,86,0.00,,---,0.07,VWS V14.01,2013-04-08 19:02:00,
2013-04-08 14:07:00,35.4,31.6,29.77,NNE,18,2.0,6.0,86,0.00,,---,0.07,VWS V14.01,2013-04-08 19:07:00,
2013-04-08 14:13:00,35.6,31.8,29.77,North,355,4.0,6.0,86,0.00,,---,0.07,VWS V14.01,2013-04-08 19:13:00,
2013-04-08 14:18:00,35.7,31.9,29.77,North,5,2.0,6.0,86,0.00,,---,0.07,VWS V14.01,2013-04-08 19:18:00,
2013-04-08 14:23:00,35.9,32.1,29.77,NNE,32,4.0,6.0,86,0.00,,---,0.07,VWS V14.01,2013-04-08 19:23:00,
2013-04-08 14:28:00,36.0,32.2,29.77,North,360,3.0,6.0,86,0.00,,---,0.07,VWS V14.01,2013-04-08 19:28:00,
2013-04-08 14:34:00,36.1,32.3,29.77,NNE,19,3.0,5.0,86,0.00,,---,0.07,VWS V14.01,2013-04-08 19:34:00,
2013-04-08 14:39:00,36.4,32.6,29.77,North,350,1.0,5.0,86,0.00,,---,0.07,VWS V14.01,2013-04-08 19:39:00,
2013-04-08 14:45:00,36.4,32.3,29.77,North,355,1.0,5.0,85,0.00,,---,0.07,VWS V14.01,2013-04-08 19:45:00,
2013-04-08 14:50:00,36.4,32.3,29.77,NNE,17,2.0,6.0,85,0.00,,---,0.07,VWS V14.01,2013-04-08 19:50:00,
2013-04-08 14:55:00,36.4,32.6,29.77,NW,321,2.0,6.0,86,0.00,,---,0.07,VWS V14.01,2013-04-08 19:55:00,
2013-04-08 15:01:00,36.0,32.2,29.78,NNW,329,1.0,6.0,86,0.00,,---,0.07,VWS V14.01,2013-04-08 20:01:00,
2013-04-08 15:06:00,35.4,31.9,29.78,NNW,342,2.0,10.0,87,0.00,,---,0.07,VWS V14.01,2013-04-08 20:06:00,
2013-04-08 15:12:00,35.3,31.8,29.78,NNW,338,1.0,10.0,87,0.00,,---,0.07,VWS V14.01,2013-04-08 20:12:00,
2013-04-08 15:17:00,35.4,32.2,29.79,North,360,2.0,10.0,88,0.00,,---,0.07,VWS V14.01,2013-04-08 20:17:00,
2013-04-08 15:22:00,35.4,32.2,29.79,NNW,344,3.0,10.0,88,0.00,,---,0.07,VWS V14.01,2013-04-08 20:22:00,
2013-04-08 15:27:00,35.2,32.0,29.79,NW,323,2.0,10.0,88,0.00,,---,0.07,VWS V14.01,2013-04-08 20:27:00,
2013-04-08 15:32:00,35.0,32.1,29.80,NNW,334,2.0,4.0,89,0.00,,---,0.07,VWS V14.01,2013-04-08 20:32:00,
2013-04-08 15:37:00,35.2,32.3,29.80,NNW,328,0.0,5.0,89,0.00,,---,0.07,VWS V14.01,2013-04-08 20:37:00,
2013-04-08 15:42:00,35.4,32.5,29.80,North,349,4.0,6.0,89,0.00,,---,0.07,VWS V14.01,2013-04-08 20:42:00,
2013-04-08 15:48:00,35.4,32.5,29.79,NNW,336,3.0,6.0,89,0.00,,---,0.07,VWS V14.01,2013-04-08 20:48:00,
2013-04-08 15:53:00,35.3,32.4,29.79,NNW,341,1.0,6.0,89,0.00,,---,0.07,VWS V14.01,2013-04-08 20:53:00,
2013-04-08 15:58:00,35.3,32.4,29.79,North,355,4.0,6.0,89,0.00,,---,0.07,VWS V14.01,2013-04-08 20:58:00,
2013-04-08 16:03:00,35.2,32.3,29.81,NNE,13,0.0,3.0,89,0.00,,---,0.07,VWS V14.01,2013-04-08 21:03:00,
2013-04-08 16:08:00,35.3,32.1,29.81,North,11,1.0,5.0,88,0.00,,---,0.07,VWS V14.01,2013-04-08 21:08:00,
2013-04-08 16:14:00,35.5,32.3,29.81,NW,321,3.0,6.0,88,0.00,,---,0.07,VWS V14.01,2013-04-08 21:14:00,
2013-04-08 16:19:00,35.3,32.1,29.80,North,355,3.0,8.0,88,0.00,,---,0.07,VWS V14.01,2013-04-08 21:19:00,
2013-04-08 16:24:00,35.3,32.4,29.80,NNW,342,3.0,8.0,89,0.00,,---,0.07,VWS V14.01,2013-04-08 21:24:00,
2013-04-08 16:30:00,35.2,32.0,29.80,North,355,2.0,8.0,88,0.00,,---,0.07,VWS V14.01,2013-04-08 21:30:00,
2013-04-08 16:35:00,35.3,32.1,29.80,NNW,348,3.0,4.0,88,0.00,,---,0.07,VWS V14.01,2013-04-08 21:35:00,
2013-04-08 16:40:00,35.2,32.0,29.80,NW,319,6.0,8.0,88,0.00,,---,0.07,VWS V14.01,2013-04-08 21:40:00,
2013-04-08 16:45:00,35.1,31.9,29.81,NW,320,3.0,8.0,88,0.00,,---,0.07,VWS V14.01,2013-04-08 21:45:00,
2013-04-08 16:50:00,35.0,31.8,29.81,North,349,0.0,8.0,88,0.00,,---,0.07,VWS V14.01,2013-04-08 21:50:00,
2013-04-08 16:56:00,35.0,31.8,29.81,NNW,346,1.0,8.0,88,0.00,,---,0.07,VWS V14.01,2013-04-08 21:56:00,
2013-04-08 17:01:00,34.9,31.7,29.82,NNW,346,3.0,8.0,88,0.00,,---,0.07,VWS V14.01,2013-04-08 22:01:00,
2013-04-08 17:06:00,34.9,31.7,29.82,North,355,1.0,4.0,88,0.00,,---,0.07,VWS V14.01,2013-04-08 22:06:00,
2013-04-08 17:12:00,35.1,31.9,29.82,North,355,0.0,4.0,88,0.00,,---,0.07,VWS V14.01,2013-04-08 22:12:00,
2013-04-08 17:17:00,35.2,32.0,29.83,North,355,1.0,5.0,88,0.00,,---,0.07,VWS V14.01,2013-04-08 22:17:00,
2013-04-08 17:22:00,35.3,32.1,29.83,North,355,1.0,5.0,88,0.00,,---,0.07,VWS V14.01,2013-04-08 22:22:00,
2013-04-08 17:27:00,35.3,31.8,29.83,North,351,7.0,9.0,87,0.00,,---,0.07,VWS V14.01,2013-04-08 22:27:00,
2013-04-08 17:32:00,35.2,31.7,29.83,North,355,4.0,5.0,87,0.00,,---,0.07,VWS V14.01,2013-04-08 22:32:00,
2013-04-08 17:37:00,35.2,31.7,29.83,NNW,346,1.0,6.0,87,0.00,,---,0.07,VWS V14.01,2013-04-08 22:37:00,
2013-04-08 17:42:00,35.4,32.2,29.83,NNW,336,4.0,6.0,88,0.00,,---,0.07,VWS V14.01,2013-04-08 22:42:00,
2013-04-08 17:48:00,35.5,32.0,29.84,NNW,336,3.0,6.0,87,0.00,,---,0.07,VWS V14.01,2013-04-08 22:48:00,
2013-04-08 17:53:00,35.5,32.0,29.84,North,360,2.0,6.0,87,0.00,,---,0.07,VWS V14.01,2013-04-08 22:53:00,
2013-04-08 17:58:00,35.4,32.2,29.84,WNW,285,5.0,7.0,88,0.00,,---,0.07,VWS V14.01,2013-04-08 22:58:00,
2013-04-08 18:03:00,35.2,32.0,29.85,NNW,330,2.0,6.0,88,0.00,,---,0.07,VWS V14.01,2013-04-08 23:03:00,
2013-04-08 18:08:00,34.8,31.9,29.85,NNW,333,5.0,6.0,89,0.00,,---,0.07,VWS V14.01,2013-04-08 23:08:00,
2013-04-08 18:14:00,34.4,31.8,29.85,WNW,302,3.0,6.0,90,0.00,,---,0.07,VWS V14.01,2013-04-08 23:14:00,
2013-04-08 18:19:00,34.4,31.8,29.85,NNW,343,3.0,6.0,90,0.00,,---,0.07,VWS V14.01,2013-04-08 23:19:00,
2013-04-08 18:24:00,34.4,31.8,29.85,NNW,340,4.0,6.0,90,0.00,,---,0.07,VWS V14.01,2013-04-08 23:24:00,
2013-04-08 18:30:00,34.4,32.0,29.85,NNW,338,3.0,6.0,91,0.00,,---,0.07,VWS V14.01,2013-04-08 23:30:00,
2013-04-08 18:35:00,34.4,32.0,29.86,NNW,333,4.0,5.0,91,0.00,,---,0.07,VWS V14.01,2013-04-08 23:35:00,
2013-04-08 18:40:00,34.4,32.0,29.86,NNW,330,3.0,6.0,91,0.00,,---,0.07,VWS V14.01,2013-04-08 23:40:00,
2013-04-08 18:45:00,34.3,32.0,29.86,NNW,332,2.0,6.0,91,0.00,,---,0.07,VWS V14.01,2013-04-08 23:45:00,
2013-04-08 18:50:00,34.2,31.9,29.86,NNW,336,1.0,6.0,91,0.00,,---,0.07,VWS V14.01,2013-04-08 23:50:00,
2013-04-08 18:55:00,34.2,32.1,29.86,NW,304,3.0,6.0,92,0.00,,---,0.07,VWS V14.01,2013-04-08 23:55:00,
2013-04-08 19:01:00,34.1,32.0,29.88,NW,306,0.0,6.0,92,0.00,,---,0.07,VWS V14.01,2013-04-09 00:01:00,
2013-04-08 19:06:00,34.1,32.0,29.88,NW,305,2.0,3.0,92,0.00,,---,0.07,VWS V14.01,2013-04-09 00:06:00,
2013-04-08 19:11:00,34.1,32.0,29.88,NW,306,1.0,3.0,92,0.00,,---,0.07,VWS V14.01,2013-04-09 00:11:00,
2013-04-08 19:17:00,34.1,32.0,29.88,NW,306,0.0,3.0,92,0.00,,---,0.07,VWS V14.01,2013-04-09 00:17:00,
2013-04-08 19:22:00,34.0,31.9,29.88,NW,306,0.0,3.0,92,0.00,,---,0.07,VWS V14.01,2013-04-09 00:22:00,
2013-04-08 19:27:00,34.0,31.9,29.88,NW,306,0.0,3.0,92,0.00,,---,0.07,VWS V14.01,2013-04-09 00:27:00,
2013-04-08 19:33:00,33.9,32.1,29.89,NW,305,0.0,2.0,93,0.00,,---,0.07,VWS V14.01,2013-04-09 00:33:00,
2013-04-08 19:38:00,33.9,32.1,29.89,NW,304,2.0,3.0,93,0.00,,---,0.07,VWS V14.01,2013-04-09 00:38:00,
2013-04-08 19:43:00,33.7,31.9,29.89,NW,304,0.0,3.0,93,0.00,,---,0.07,VWS V14.01,2013-04-09 00:43:00,
2013-04-08 19:48:00,33.7,31.9,29.89,NW,305,1.0,3.0,93,0.00,,---,0.07,VWS V14.01,2013-04-09 00:48:00,
2013-04-08 19:53:00,33.6,31.8,29.89,NW,305,2.0,3.0,93,0.00,,---,0.07,VWS V14.01,2013-04-09 00:53:00,
2013-04-08 19:58:00,33.5,31.7,29.89,NW,305,2.0,3.0,93,0.00,,---,0.07,VWS V14.01,2013-04-09 00:58:00,
2013-04-08 20:04:00,33.5,31.7,29.89,NW,305,0.0,1.0,93,0.00,,---,0.07,VWS V14.01,2013-04-09 01:04:00,
2013-04-08 20:09:00,33.4,31.6,29.89,NW,305,0.0,2.0,93,0.00,,---,0.07,VWS V14.01,2013-04-09 01:09:00,
2013-04-08 20:14:00,33.4,31.6,29.89,NW,305,0.0,2.0,93,0.00,,---,0.07,VWS V14.01,2013-04-09 01:14:00,
2013-04-08 20:19:00,33.4,31.9,29.90,NW,306,2.0,3.0,94,0.00,,---,0.07,VWS V14.01,2013-04-09 01:19:00,
2013-04-08 20:25:00,33.4,31.9,29.90,NW,306,0.0,3.0,94,0.00,,---,0.07,VWS V14.01,2013-04-09 01:25:00,
2013-04-08 20:30:00,33.4,31.9,29.90,NW,306,0.0,3.0,94,0.00,,---,0.07,VWS V14.01,2013-04-09 01:30:00,
2013-04-08 20:35:00,33.4,31.9,29.90,NW,306,0.0,0.0,94,0.00,,---,0.07,VWS V14.01,2013-04-09 01:35:00,
2013-04-08 20:41:00,33.4,31.9,29.90,NW,306,0.0,1.0,94,0.00,,---,0.07,VWS V14.01,2013-04-09 01:41:00,
2013-04-08 20:47:00,33.4,31.9,29.91,NW,306,0.0,1.0,94,0.00,,---,0.07,VWS V14.01,2013-04-09 01:47:00,
2013-04-08 20:52:00,33.4,31.9,29.91,NW,306,0.0,1.0,94,0.00,,---,0.07,VWS V14.01,2013-04-09 01:52:00,
2013-04-08 20:57:00,33.4,31.9,29.91,NW,306,0.0,1.0,94,0.00,,---,0.07,VWS V14.01,2013-04-09 01:57:00,
2013-04-08 21:02:00,33.4,31.9,29.91,NW,306,0.0,0.0,94,0.00,,---,0.07,VWS V14.01,2013-04-09 02:02:00,
2013-04-08 21:07:00,33.4,31.9,29.91,NW,306,0.0,0.0,94,0.00,,---,0.07,VWS V14.01,2013-04-09 02:07:00,
2013-04-08 21:12:00,33.5,32.0,29.91,NW,306,0.0,0.0,94,0.00,,---,0.07,VWS V14.01,2013-04-09 02:12:00,
2013-04-08 21:17:00,33.6,32.1,29.92,NW,306,0.0,0.0,94,0.00,,---,0.07,VWS V14.01,2013-04-09 02:17:00,
2013-04-08 21:23:00,33.6,32.1,29.92,NW,306,0.0,0.0,94,0.00,,---,0.07,VWS V14.01,2013-04-09 02:23:00,
2013-04-08 21:28:00,33.5,32.0,29.92,NW,306,0.0,0.0,94,0.00,,---,0.07,VWS V14.01,2013-04-09 02:28:00,
2013-04-08 21:33:00,33.4,31.6,29.92,NW,306,0.0,0.0,93,0.00,,---,0.07,VWS V14.01,2013-04-09 02:33:00,
2013-04-08 21:38:00,33.3,31.5,29.92,NW,306,0.0,0.0,93,0.00,,---,0.07,VWS V14.01,2013-04-09 02:38:00,
2013-04-08 21:43:00,33.2,31.7,29.92,NW,306,0.0,0.0,94,0.00,,---,0.07,VWS V14.01,2013-04-09 02:43:00,
2013-04-08 21:49:00,33.2,31.7,29.94,NW,306,0.0,0.0,94,0.00,,---,0.07,VWS V14.01,2013-04-09 02:49:00,
2013-04-08 21:54:00,33.2,31.7,29.94,NW,306,0.0,0.0,94,0.00,,---,0.07,VWS V14.01,2013-04-09 02:54:00,
2013-04-08 21:59:00,33.2,31.7,29.94,NW,306,0.0,1.0,94,0.00,,---,0.07,VWS V14.01,2013-04-09 02:59:00,
2013-04-08 22:05:00,33.2,31.7,29.94,NW,306,0.0,0.0,94,0.00,,---,0.07,VWS V14.01,2013-04-09 03:05:00,
2013-04-08 22:10:00,33.2,31.7,29.94,NW,306,0.0,0.0,94,0.00,,---,0.07,VWS V14.01,2013-04-09 03:10:00,
2013-04-08 22:15:00,33.2,31.7,29.92,NW,306,0.0,0.0,94,0.00,,---,0.07,VWS V14.01,2013-04-09 03:15:00,
2013-04-08 22:20:00,33.3,31.8,29.92,NW,306,0.0,0.0,94,0.00,,---,0.07,VWS V14.01,2013-04-09 03:20:00,
2013-04-08 22:25:00,33.3,31.8,29.92,NW,306,0.0,0.0,94,0.00,,---,0.07,VWS V14.01,2013-04-09 03:25:00,
2013-04-08 22:31:00,33.3,31.8,29.92,NW,306,0.0,0.0,94,0.00,,---,0.07,VWS V14.01,2013-04-09 03:31:00,
2013-04-08 22:36:00,33.3,31.8,29.92,NW,306,0.0,0.0,94,0.00,,---,0.07,VWS V14.01,2013-04-09 03:36:00,
2013-04-08 22:41:00,33.3,31.8,29.92,NW,306,0.0,0.0,94,0.00,,---,0.07,VWS V14.01,2013-04-09 03:41:00,
2013-04-08 22:47:00,33.2,31.4,29.92,NW,306,0.0,0.0,93,0.00,,---,0.07,VWS V14.01,2013-04-09 03:47:00,
2013-04-08 22:52:00,33.0,31.2,29.92,NW,306,0.0,0.0,93,0.00,,---,0.07,VWS V14.01,2013-04-09 03:52:00,
2013-04-08 22:57:00,32.9,31.1,29.92,NW,306,0.0,1.0,93,0.00,,---,0.07,VWS V14.01,2013-04-09 03:57:00,
2013-04-08 23:00:00,32.9,31.1,29.92,NW,306,0.0,1.0,93,0.00,,---,0.07,VWS V14.01,2013-04-09 04:00:00,
2013-04-08 23:01:00,32.8,31.0,29.92,NW,306,0.0,1.0,93,0.00,,---,0.07,VWS V14.01,2013-04-09 04:01:00,
2013-04-08 23:02:00,32.8,31.0,29.92,NW,306,0.0,0.0,93,0.00,,---,0.07,VWS V14.01,2013-04-09 04:02:00,
2013-04-08 23:07:00,32.8,31.0,29.92,NW,306,0.0,1.0,93,0.00,,---,0.07,VWS V14.01,2013-04-09 04:07:00,
2013-04-08 23:12:00,32.6,31.1,29.92,NW,306,0.0,1.0,94,0.00,,---,0.07,VWS V14.01,2013-04-09 04:12:00,
2013-04-08 23:17:00,32.5,31.0,29.92,NW,306,0.0,1.0,94,0.00,,---,0.07,VWS V14.01,2013-04-09 04:17:00,
2013-04-08 23:22:00,32.5,31.0,29.92,NW,306,0.0,1.0,94,0.00,,---,0.07,VWS V14.01,2013-04-09 04:22:00,
2013-04-08 23:27:00,32.5,31.0,29.92,WNW,298,0.0,4.0,94,0.00,,---,0.07,VWS V14.01,2013-04-09 04:27:00,
2013-04-08 23:32:00,32.5,31.0,29.92,WNW,298,1.0,2.0,94,0.00,,---,0.07,VWS V14.01,2013-04-09 04:32:00,
2013-04-08 23:37:00,32.5,31.0,29.92,WNW,292,1.0,3.0,94,0.00,,---,0.07,VWS V14.01,2013-04-09 04:37:00,
2013-04-08 23:43:00,32.5,31.0,29.92,West,279,1.0,6.0,94,0.00,,---,0.07,VWS V14.01,2013-04-09 04:43:00,
2013-04-08 23:48:00,32.5,31.0,29.93,West,279,1.0,6.0,94,0.00,,---,0.07,VWS V14.01,2013-04-09 04:48:00,
2013-04-08 23:53:00,32.5,31.0,29.93,West,280,2.0,6.0,94,0.00,,---,0.07,VWS V14.01,2013-04-09 04:53:00,
2013-04-08 23:58:00,32.5,31.0,29.93,WNW,288,3.0,6.0,94,0.00,,---,0.07,VWS V14.01,2013-04-09 04:58:00,